sensor_id;sensor_type;location;lat;lon;timestamp;P1;P2;P0
36897;PMS5003;22827;53.108;-6.738;2023-07-13T19:21:36;6;6;
36897;PMS5003;22827;53.108;-6.738;2023-07-13T19:24:04;6;6;
36897;PMS5003;22827;53.108;-6.738;2023-07-13T19:26:35;6;5;
36897;PMS5003;22827;53.108;-6.738;2023-07-13T19:29:05;14;12;
36897;PMS5003;22827;53.108;-6.738;2023-07-13T19:31:39;5;5;
36897;PMS5003;22827;53.108;-6.738;2023-07-13T19:34:15;4;4;
36897;PMS5003;22827;53.108;-6.738;2023-07-13T19:36:46;4;4;
36897;PMS5003;22827;53.108;-6.738;2023-07-13T19:42:24;5;4;
36897;PMS5003;22827;53.108;-6.738;2023-07-13T19:44:54;4;4;
36897;PMS5003;22827;53.108;-6.738;2023-07-13T19:47:24;5;3;
36897;PMS5003;22827;53.108;-6.738;2023-07-13T19:49:51;5;5;
36897;PMS5003;22827;53.108;-6.738;2023-07-13T19:52:20;4;4;
36897;PMS5003;22827;53.108;-6.738;2023-07-13T19:54:50;4;4;
36897;PMS5003;22827;53.108;-6.738;2023-07-13T19:57:19;4;4;
36897;PMS5003;22827;53.108;-6.738;2023-07-13T19:59:49;3;2;
36897;PMS5003;22827;53.108;-6.738;2023-07-13T20:02:16;3;3;
36897;PMS5003;22827;53.108;-6.738;2023-07-13T20:04:44;4;4;
36897;PMS5003;22827;53.108;-6.738;2023-07-13T20:07:13;2;2;
36897;PMS5003;22827;53.108;-6.738;2023-07-13T20:09:41;2;2;
36897;PMS5003;22827;53.108;-6.738;2023-07-13T20:12:11;3;3;
36897;PMS5003;22827;53.108;-6.738;2023-07-13T20:14:39;2;2;
36897;PMS5003;22827;53.108;-6.738;2023-07-13T20:17:12;9;9;
36897;PMS5003;22827;53.108;-6.738;2023-07-13T20:20:00;3;3;
36897;PMS5003;22827;53.108;-6.738;2023-07-13T20:22:41;3;3;
36897;PMS5003;22827;53.108;-6.738;2023-07-13T20:25:12;3;3;
36897;PMS5003;22827;53.108;-6.738;2023-07-13T20:27:41;3;3;
36897;PMS5003;22827;53.108;-6.738;2023-07-13T20:30:08;2;2;
36897;PMS5003;22827;53.108;-6.738;2023-07-13T20:32:36;4;3;
36897;PMS5003;22827;53.108;-6.738;2023-07-13T20:35:04;4;3;
36897;PMS5003;22827;53.108;-6.738;2023-07-13T20:37:49;4;3;
36897;PMS5003;22827;53.108;-6.738;2023-07-13T20:40:17;5;3;
36897;PMS5003;22827;53.108;-6.738;2023-07-13T20:42:46;3;3;
36897;PMS5003;22827;53.108;-6.738;2023-07-13T20:45:13;2;2;
36897;PMS5003;22827;53.108;-6.738;2023-07-13T20:47:41;2;2;
36897;PMS5003;22827;53.108;-6.738;2023-07-13T20:50:15;2;2;
36897;PMS5003;22827;53.108;-6.738;2023-07-13T20:52:47;2;2;
36897;PMS5003;22827;53.108;-6.738;2023-07-13T20:55:15;3;2;
36897;PMS5003;22827;53.108;-6.738;2023-07-13T20:57:44;3;2;
36897;PMS5003;22827;53.108;-6.738;2023-07-13T21:00:13;6;2;
36897;PMS5003;22827;53.108;-6.738;2023-07-13T21:00:14;6;2;
36897;PMS5003;22827;53.108;-6.738;2023-07-13T21:02:43;2;2;
36897;PMS5003;22827;53.108;-6.738;2023-07-13T21:05:12;4;4;
36897;PMS5003;22827;53.108;-6.738;2023-07-13T21:07:43;2;2;
36897;PMS5003;22827;53.108;-6.738;2023-07-13T21:10:14;5;4;
36897;PMS5003;22827;53.108;-6.738;2023-07-13T21:12:42;4;2;
36897;PMS5003;22827;53.108;-6.738;2023-07-13T21:15:09;3;3;
36897;PMS5003;22827;53.108;-6.738;2023-07-13T21:17:37;2;2;
36897;PMS5003;22827;53.108;-6.738;2023-07-13T21:20:12;3;2;
36897;PMS5003;22827;53.108;-6.738;2023-07-13T21:22:42;5;4;
36897;PMS5003;22827;53.108;-6.738;2023-07-13T21:25:12;3;3;
36897;PMS5003;22827;53.108;-6.738;2023-07-13T21:27:41;2;1;
36897;PMS5003;22827;53.108;-6.738;2023-07-13T21:30:11;3;3;
36897;PMS5003;22827;53.108;-6.738;2023-07-13T21:32:40;3;2;
36897;PMS5003;22827;53.108;-6.738;2023-07-13T21:35:15;2;2;
36897;PMS5003;22827;53.108;-6.738;2023-07-13T21:37:46;3;3;
36897;PMS5003;22827;53.108;-6.738;2023-07-13T21:40:15;3;2;
36897;PMS5003;22827;53.108;-6.738;2023-07-13T21:42:45;2;2;
36897;PMS5003;22827;53.108;-6.738;2023-07-13T21:45:16;3;3;
36897;PMS5003;22827;53.108;-6.738;2023-07-13T21:47:46;4;2;
36897;PMS5003;22827;53.108;-6.738;2023-07-13T21:50:13;2;2;
36897;PMS5003;22827;53.108;-6.738;2023-07-13T21:52:41;4;4;
36897;PMS5003;22827;53.108;-6.738;2023-07-13T21:55:16;3;3;
36897;PMS5003;22827;53.108;-6.738;2023-07-13T21:57:47;2;2;
36897;PMS5003;22827;53.108;-6.738;2023-07-13T22:00:33;5;5;
36897;PMS5003;22827;53.108;-6.738;2023-07-13T22:03:01;6;4;
36897;PMS5003;22827;53.108;-6.738;2023-07-13T22:05:30;7;7;
36897;PMS5003;22827;53.108;-6.738;2023-07-13T22:07:57;7;7;
36897;PMS5003;22827;53.108;-6.738;2023-07-13T22:10:25;10;9;
36897;PMS5003;22827;53.108;-6.738;2023-07-13T22:12:52;9;8;
36897;PMS5003;22827;53.108;-6.738;2023-07-13T22:15:20;12;10;
36897;PMS5003;22827;53.108;-6.738;2023-07-13T22:17:48;14;13;
36897;PMS5003;22827;53.108;-6.738;2023-07-13T22:20:16;36;34;
36897;PMS5003;22827;53.108;-6.738;2023-07-13T22:22:48;11;11;
36897;PMS5003;22827;53.108;-6.738;2023-07-13T22:25:15;31;31;
36897;PMS5003;22827;53.108;-6.738;2023-07-13T22:27:44;60;59;
36897;PMS5003;22827;53.108;-6.738;2023-07-13T22:30:12;19;19;
36897;PMS5003;22827;53.108;-6.738;2023-07-13T22:32:41;62;62;
36897;PMS5003;22827;53.108;-6.738;2023-07-13T22:35:09;23;21;
36897;PMS5003;22827;53.108;-6.738;2023-07-13T22:37:38;87;87;
36897;PMS5003;22827;53.108;-6.738;2023-07-13T22:40:10;58;57;
36897;PMS5003;22827;53.108;-6.738;2023-07-13T22:42:39;48;47;
36897;PMS5003;22827;53.108;-6.738;2023-07-13T22:45:07;91;91;
36897;PMS5003;22827;53.108;-6.738;2023-07-13T22:47:35;8;8;
36897;PMS5003;22827;53.108;-6.738;2023-07-13T22:50:11;74;73;
36897;PMS5003;22827;53.108;-6.738;2023-07-13T22:52:41;40;40;
36897;PMS5003;22827;53.108;-6.738;2023-07-13T22:55:10;101;99;
36897;PMS5003;22827;53.108;-6.738;2023-07-13T22:57:39;86;86;
36897;PMS5003;22827;53.108;-6.738;2023-07-13T23:00:08;16;16;
36897;PMS5003;22827;53.108;-6.738;2023-07-13T23:02:42;57;57;
36897;PMS5003;22827;53.108;-6.738;2023-07-13T23:05:12;19;18;
36897;PMS5003;22827;53.108;-6.738;2023-07-13T23:07:41;18;12;
36897;PMS5003;22827;53.108;-6.738;2023-07-13T23:10:12;19;19;
36897;PMS5003;22827;53.108;-6.738;2023-07-13T23:12:41;14;14;
36897;PMS5003;22827;53.108;-6.738;2023-07-13T23:15:09;18;17;
36897;PMS5003;22827;53.108;-6.738;2023-07-13T23:17:37;17;14;
36897;PMS5003;22827;53.108;-6.738;2023-07-13T23:20:13;73;72;
36897;PMS5003;22827;53.108;-6.738;2023-07-13T23:22:45;65;65;
36897;PMS5003;22827;53.108;-6.738;2023-07-13T23:25:13;103;103;
36897;PMS5003;22827;53.108;-6.738;2023-07-13T23:27:41;106;106;
36897;PMS5003;22827;53.108;-6.738;2023-07-13T23:30:12;150;149;
36897;PMS5003;22827;53.108;-6.738;2023-07-13T23:32:40;97;95;
36897;PMS5003;22827;53.108;-6.738;2023-07-13T23:35:09;113;112;
36897;PMS5003;22827;53.108;-6.738;2023-07-13T23:37:37;39;39;
36897;PMS5003;22827;53.108;-6.738;2023-07-13T23:40:11;68;67;
36897;PMS5003;22827;53.108;-6.738;2023-07-13T23:42:39;167;167;
36897;PMS5003;22827;53.108;-6.738;2023-07-13T23:45:08;159;159;
36897;PMS5003;22827;53.108;-6.738;2023-07-13T23:47:39;171;170;
36897;PMS5003;22827;53.108;-6.738;2023-07-13T23:50:09;23;23;
36897;PMS5003;22827;53.108;-6.738;2023-07-13T23:52:39;13;11;
36897;PMS5003;22827;53.108;-6.738;2023-07-13T23:55:11;98;97;
36897;PMS5003;22827;53.108;-6.738;2023-07-13T23:57:41;21;21;
